Time;durP1;ratioP1;P1;durP2;ratioP2;P2;SDS_P1;SDS_P2;PMS_P1;PMS_P2;Temp;Humidity;BMP_temperature;BMP_pressure;BME280_temperature;BME280_humidity;BME280_pressure;Samples;Min_cycle;Max_cycle;Signal;HPM_P1;HPM_P2
2022/03/28 00:01:32;;;;;;;19.42;15.77;;;10.70;1.00;;;;;;5044271;28;20041;-93
2022/03/28 00:03:58;;;;;;;18.80;15.25;;;10.50;1.00;;;;;;5044245;28;20033;-93
2022/03/28 00:06:24;;;;;;;20.50;16.67;;;10.70;1.00;;;;;;5050084;28;20029;-93
2022/03/28 00:08:50;;;;;;;24.65;16.35;;;10.70;1.00;;;;;;5033616;28;20055;-93
2022/03/28 00:11:16;;;;;;;21.88;16.90;;;10.70;1.00;;;;;;5048955;28;20033;-94
2022/03/28 00:13:43;;;;;;;20.55;16.42;;;10.80;1.00;;;;;;5045334;28;20116;-94
2022/03/28 00:16:08;;;;;;;21.13;15.80;;;10.70;1.00;;;;;;5042605;28;20040;-93
2022/03/28 00:18:34;;;;;;;19.83;16.42;;;10.70;1.00;;;;;;5036473;28;20017;-93
2022/03/28 00:21:00;;;;;;;20.95;16.00;;;10.60;1.00;;;;;;5051526;28;20115;-93
2022/03/28 00:23:26;;;;;;;20.15;14.43;;;10.80;1.00;;;;;;5050332;28;20412;-94
2022/03/28 00:25:52;;;;;;;20.48;15.15;;;10.60;1.00;;;;;;5048111;28;20025;-93
2022/03/28 00:28:18;;;;;;;20.38;14.52;;;10.00;1.00;;;;;;5047952;28;20075;-93
2022/03/28 00:30:44;;;;;;;19.38;15.35;;;10.10;1.00;;;;;;5052638;28;20032;-93
2022/03/28 00:33:10;;;;;;;19.08;15.02;;;10.50;1.00;;;;;;5054185;28;20050;-93
2022/03/28 00:35:36;;;;;;;20.25;15.32;;;10.30;1.00;;;;;;5054530;28;20024;-93
2022/03/28 00:38:05;;;;;;;19.42;14.73;;;10.10;1.00;;;;;;5050853;28;20388;-93
2022/03/28 00:40:32;;;;;;;20.88;14.73;;;10.20;1.00;;;;;;5053490;28;20037;-93
2022/03/28 00:43:03;;;;;;;18.45;13.98;;;10.20;1.00;;;;;;5053772;28;20123;-94
2022/03/28 00:45:31;;;;;;;20.00;14.85;;;10.00;1.00;;;;;;5053855;28;20916;-93
2022/03/28 00:47:57;;;;;;;19.98;14.20;;;10.10;1.00;;;;;;5054330;28;20028;-92
2022/03/28 00:50:23;;;;;;;18.95;14.20;;;10.00;1.00;;;;;;5048688;28;20029;-92
2022/03/28 00:52:50;;;;;;;16.25;14.05;;;9.80;1.00;;;;;;5053180;28;20024;-93
2022/03/28 00:55:15;;;;;;;19.08;14.57;;;9.80;1.00;;;;;;5050245;28;20104;-94
2022/03/28 00:57:42;;;;;;;19.02;15.00;;;9.40;1.00;;;;;;5052288;28;20052;-93
2022/03/28 01:00:09;;;;;;;19.90;14.38;;;9.60;1.00;;;;;;5052913;28;20028;-93
2022/03/28 01:02:35;;;;;;;18.55;13.95;;;9.30;1.00;;;;;;5053467;28;20041;-93
2022/03/28 01:05:01;;;;;;;19.48;14.75;;;9.80;1.00;;;;;;5050912;28;20393;-93
2022/03/28 01:07:26;;;;;;;18.40;14.27;;;9.70;1.00;;;;;;5053621;28;20039;-93
2022/03/28 01:09:55;;;;;;;16.63;13.23;;;9.50;1.00;;;;;;5053253;28;20025;-93
2022/03/28 01:12:25;;;;;;;16.27;13.52;;;9.60;1.00;;;;;;5052132;28;20025;-93
2022/03/28 01:14:52;;;;;;;16.20;13.23;;;9.90;1.00;;;;;;5051119;28;20273;-93
2022/03/28 01:20:04;;;;;;;18.05;13.85;;;9.40;1.00;;;;;;5032357;28;20576;-93
2022/03/28 01:22:30;;;;;;;16.77;12.70;;;9.20;1.00;;;;;;5032088;28;20037;-93
2022/03/28 01:25:01;;;;;;;18.15;12.73;;;9.20;1.00;;;;;;5032345;28;20037;-93
2022/03/28 01:27:27;;;;;;;18.83;13.85;;;9.70;1.00;;;;;;5017056;28;20044;-92
2022/03/28 01:29:53;;;;;;;20.20;13.70;;;9.40;1.00;;;;;;5033060;28;20033;-92
2022/03/28 01:32:19;;;;;;;15.57;12.65;;;9.70;1.00;;;;;;5031813;28;20083;-93
2022/03/28 01:34:45;;;;;;;17.70;14.48;;;9.60;1.00;;;;;;5012690;28;20057;-93
2022/03/28 01:37:11;;;;;;;19.42;14.48;;;9.50;1.00;;;;;;5031681;28;20037;-93
2022/03/28 01:39:37;;;;;;;19.55;14.02;;;9.60;1.00;;;;;;5032251;28;20029;-93
2022/03/28 01:42:03;;;;;;;19.02;13.90;;;9.60;1.00;;;;;;5031206;28;20041;-93
2022/03/28 01:44:29;;;;;;;17.90;14.25;;;9.40;1.00;;;;;;5033379;28;20030;-93
2022/03/28 01:46:54;;;;;;;16.55;14.02;;;9.40;1.00;;;;;;5015646;28;20037;-93
2022/03/28 01:49:21;;;;;;;18.13;13.68;;;9.40;1.00;;;;;;5032119;28;20018;-93
2022/03/28 01:51:48;;;;;;;15.90;13.23;;;9.20;1.00;;;;;;5031913;28;20065;-94
2022/03/28 01:54:15;;;;;;;19.77;14.13;;;9.70;1.00;;;;;;5032216;28;20022;-94
2022/03/28 01:56:42;;;;;;;17.00;14.40;;;9.10;1.00;;;;;;5032635;28;20045;-93
2022/03/28 01:59:08;;;;;;;18.30;14.02;;;9.30;1.00;;;;;;5049599;28;20032;-94
2022/03/28 02:01:35;;;;;;;19.35;14.52;;;9.50;1.00;;;;;;5050888;28;20040;-93
2022/03/28 02:04:01;;;;;;;19.60;14.05;;;9.50;1.00;;;;;;5052453;28;20032;-93
2022/03/28 02:06:28;;;;;;;19.10;15.32;;;9.10;1.00;;;;;;5051172;28;20091;-94
2022/03/28 02:08:54;;;;;;;19.02;15.10;;;9.00;1.00;;;;;;5054811;28;20028;-93
2022/03/28 02:11:20;;;;;;;18.73;14.98;;;9.10;1.00;;;;;;5051032;28;20033;-93
2022/03/28 02:13:46;;;;;;;17.60;14.30;;;8.90;1.00;;;;;;5050676;28;20385;-93
2022/03/28 02:16:12;;;;;;;18.35;13.82;;;9.10;1.00;;;;;;5050885;28;20055;-93
2022/03/28 02:18:40;;;;;;;17.50;13.57;;;9.30;1.00;;;;;;5049016;28;20032;-93
2022/03/28 02:21:06;;;;;;;15.55;12.70;;;9.00;1.00;;;;;;5052189;28;20032;-93
2022/03/28 02:23:33;;;;;;;17.65;13.02;;;8.90;1.00;;;;;;5054453;28;20017;-93
2022/03/28 02:25:59;;;;;;;17.48;12.27;;;8.80;1.00;;;;;;5048834;28;20469;-93
2022/03/28 02:28:25;;;;;;;17.88;12.50;;;8.70;1.00;;;;;;5052204;28;20036;-93
2022/03/28 02:30:50;;;;;;;15.38;11.70;;;8.90;1.00;;;;;;5052031;28;20024;-93
2022/03/28 02:33:17;;;;;;;17.48;12.15;;;8.90;1.00;;;;;;5051478;28;20192;-93
2022/03/28 02:35:43;;;;;;;15.85;11.75;;;8.90;1.00;;;;;;5051984;28;20536;-93
2022/03/28 02:38:08;;;;;;;15.35;11.23;;;8.80;1.00;;;;;;5052103;28;20033;-92
2022/03/28 02:40:35;;;;;;;14.02;10.68;;;8.80;1.00;;;;;;5049233;28;20029;-94
2022/03/28 02:43:02;;;;;;;15.18;10.95;;;8.80;1.00;;;;;;5050301;28;20037;-93
2022/03/28 02:45:31;;;;;;;14.00;11.30;;;8.70;1.00;;;;;;5048696;28;20028;-93
2022/03/28 02:47:59;;;;;;;14.30;11.05;;;9.20;1.00;;;;;;5052258;28;20095;-93
2022/03/28 02:50:25;;;;;;;15.35;11.15;;;8.60;1.00;;;;;;5051838;28;20048;-93
2022/03/28 02:52:51;;;;;;;17.95;11.77;;;8.60;1.00;;;;;;5051262;28;20037;-92
2022/03/28 02:55:17;;;;;;;14.85;10.85;;;8.40;1.00;;;;;;5051134;28;20033;-93
2022/03/28 02:57:42;;;;;;;14.50;11.10;;;8.40;1.00;;;;;;5052069;28;20025;-93
2022/03/28 03:00:10;;;;;;;12.93;11.05;;;9.00;1.00;;;;;;5052522;28;20056;-93
2022/03/28 03:02:36;;;;;;;19.65;12.23;;;8.60;1.00;;;;;;5049949;28;20033;-93
2022/03/28 03:05:02;;;;;;;16.15;12.73;;;8.40;1.00;;;;;;5050110;28;20026;-93
2022/03/28 03:07:28;;;;;;;15.63;12.30;;;8.40;1.00;;;;;;5051158;28;20032;-93
2022/03/28 03:09:53;;;;;;;15.88;12.18;;;8.40;1.00;;;;;;5051823;28;20025;-92
2022/03/28 03:12:19;;;;;;;16.17;12.90;;;8.60;1.00;;;;;;5048606;28;20060;-93
2022/03/28 03:14:45;;;;;;;18.05;12.75;;;8.20;1.00;;;;;;5050906;28;20033;-93
2022/03/28 03:17:10;;;;;;;17.50;12.85;;;8.20;1.00;;;;;;5051159;28;20036;-94
2022/03/28 03:19:39;;;;;;;14.68;11.60;;;8.10;1.00;;;;;;5049897;28;20029;-93
2022/03/28 03:22:05;;;;;;;14.80;11.75;;;8.20;1.00;;;;;;5047694;28;20040;-93
2022/03/28 03:24:31;;;;;;;17.83;11.85;;;8.20;1.00;;;;;;5050955;28;20021;-93
2022/03/28 03:26:57;;;;;;;14.10;11.05;;;8.30;1.00;;;;;;5052841;28;20388;-92
2022/03/28 03:29:23;;;;;;;14.27;11.38;;;8.30;1.00;;;;;;5050008;28;20049;-93
2022/03/28 03:31:49;;;;;;;13.07;11.45;;;8.30;1.00;;;;;;5049608;28;20116;-93
2022/03/28 03:34:14;;;;;;;15.57;11.63;;;8.20;1.00;;;;;;5050795;28;20071;-93
2022/03/28 03:36:40;;;;;;;13.32;11.32;;;8.40;1.00;;;;;;5049618;28;20079;-93
2022/03/28 03:39:06;;;;;;;13.27;10.82;;;8.20;1.00;;;;;;5051557;28;20021;-93
2022/03/28 03:41:31;;;;;;;13.70;11.23;;;8.20;1.00;;;;;;5051334;28;20041;-93
2022/03/28 03:43:57;;;;;;;14.15;10.95;;;8.40;1.00;;;;;;5056428;28;20022;-93
2022/03/28 03:46:23;;;;;;;12.90;11.00;;;8.30;1.00;;;;;;5040188;28;20566;-93
2022/03/28 03:48:48;;;;;;;14.40;11.35;;;8.30;1.00;;;;;;5067253;28;20032;-93
2022/03/28 03:51:14;;;;;;;15.25;11.27;;;8.30;1.00;;;;;;5050813;28;20033;-93
2022/03/28 03:53:40;;;;;;;13.60;10.60;;;8.30;1.00;;;;;;5051198;28;20021;-93
2022/03/28 03:56:05;;;;;;;14.32;10.85;;;8.30;1.00;;;;;;5052074;28;20017;-93
2022/03/28 03:58:31;;;;;;;16.00;11.57;;;8.20;1.00;;;;;;5048278;28;20116;-93
2022/03/28 04:00:57;;;;;;;17.13;10.90;;;8.20;1.00;;;;;;5050312;28;20044;-93
2022/03/28 04:03:23;;;;;;;14.30;12.05;;;8.20;1.00;;;;;;5048162;28;20021;-93
2022/03/28 04:05:48;;;;;;;14.50;10.98;;;8.10;1.00;;;;;;5054996;28;20079;-92
2022/03/28 04:08:14;;;;;;;15.13;10.95;;;8.10;1.00;;;;;;5038379;28;20028;-93
2022/03/28 04:10:42;;;;;;;13.93;10.63;;;8.10;1.00;;;;;;5047257;28;20082;-93
2022/03/28 04:13:09;;;;;;;12.27;10.55;;;8.30;1.00;;;;;;5065486;28;20029;-92
2022/03/28 04:15:35;;;;;;;15.85;11.10;;;8.20;1.00;;;;;;5051581;28;20037;-93
2022/03/28 04:18:00;;;;;;;15.13;10.65;;;8.10;1.00;;;;;;5053724;28;20025;-93
2022/03/28 04:20:27;;;;;;;13.95;10.70;;;8.00;1.00;;;;;;5053587;28;20477;-93
2022/03/28 04:22:53;;;;;;;11.68;9.73;;;8.60;1.00;;;;;;5051654;28;20037;-93
2022/03/28 04:25:19;;;;;;;17.27;10.20;;;8.20;1.00;;;;;;5052672;28;20021;-94
2022/03/28 04:27:45;;;;;;;11.95;9.23;;;8.10;1.00;;;;;;5054562;28;20489;-93
2022/03/28 04:30:12;;;;;;;11.75;9.98;;;8.20;1.00;;;;;;5052887;28;20031;-93
2022/03/28 04:32:38;;;;;;;14.65;10.70;;;8.40;1.00;;;;;;5054082;28;20440;-93
2022/03/28 04:35:05;;;;;;;13.98;10.10;;;8.20;1.00;;;;;;5054233;28;20028;-93
2022/03/28 04:37:35;;;;;;;12.25;9.65;;;8.30;1.00;;;;;;5053869;28;20120;-93
2022/03/28 04:40:04;;;;;;;12.15;9.93;;;8.60;1.00;;;;;;5052533;28;20043;-92
2022/03/28 04:42:29;;;;;;;10.45;8.88;;;8.40;1.00;;;;;;5052495;28;20034;-93
2022/03/28 04:44:55;;;;;;;15.07;9.52;;;8.30;1.00;;;;;;5055978;28;20579;-93
2022/03/28 04:47:20;;;;;;;13.88;10.20;;;8.50;1.00;;;;;;5053333;28;20401;-93
2022/03/28 04:49:46;;;;;;;14.98;11.07;;;8.50;1.00;;;;;;5052986;28;20028;-92
2022/03/28 04:52:12;;;;;;;15.55;9.13;;;8.40;1.00;;;;;;5067526;28;20436;-94
2022/03/28 04:54:38;;;;;;;15.63;10.15;;;8.50;1.00;;;;;;5055814;28;20052;-93
2022/03/28 04:57:04;;;;;;;14.75;9.90;;;8.40;1.00;;;;;;5053592;28;20473;-93
2022/03/28 04:59:31;;;;;;;18.02;10.00;;;8.10;1.00;;;;;;5054689;28;20044;-93
2022/03/28 05:01:57;;;;;;;15.98;9.98;;;8.10;1.00;;;;;;5050280;28;20061;-93
2022/03/28 05:04:22;;;;;;;15.73;10.05;;;7.90;1.00;;;;;;5053365;28;20068;-93
2022/03/28 05:06:48;;;;;;;14.23;9.68;;;8.00;1.00;;;;;;5053538;28;20405;-93
2022/03/28 05:09:13;;;;;;;14.88;10.30;;;8.10;1.00;;;;;;5051716;28;20025;-93
2022/03/28 05:11:39;;;;;;;12.63;9.20;;;8.20;1.00;;;;;;5052231;28;20079;-92
2022/03/28 05:14:05;;;;;;;12.13;9.68;;;8.20;1.00;;;;;;5051688;28;20082;-93
2022/03/28 05:16:31;;;;;;;13.27;9.57;;;8.40;1.00;;;;;;5051447;28;20556;-93
2022/03/28 05:18:56;;;;;;;12.77;9.32;;;8.80;1.00;;;;;;5053375;28;20132;-93
2022/03/28 05:21:23;;;;;;;15.85;10.10;;;8.50;1.00;;;;;;5052802;28;20036;-93
2022/03/28 05:23:48;;;;;;;13.57;9.73;;;8.50;1.00;;;;;;5055415;28;20033;-93
2022/03/28 05:26:14;;;;;;;12.98;9.77;;;8.40;1.00;;;;;;5051845;28;20032;-93
2022/03/28 05:28:39;;;;;;;16.73;10.60;;;8.70;1.00;;;;;;5050983;28;20029;-93
2022/03/28 05:31:05;;;;;;;13.35;10.23;;;8.80;1.00;;;;;;5050878;28;20021;-93
2022/03/28 05:33:31;;;;;;;15.50;9.82;;;8.60;1.00;;;;;;5051301;28;20080;-93
2022/03/28 05:35:57;;;;;;;15.18;10.25;;;8.70;1.00;;;;;;5054526;28;20021;-92
2022/03/28 05:38:23;;;;;;;15.02;10.18;;;8.50;1.00;;;;;;5052094;28;20033;-93
2022/03/28 05:40:49;;;;;;;12.10;9.88;;;8.50;1.00;;;;;;5051591;28;20108;-93
2022/03/28 05:43:15;;;;;;;16.25;10.23;;;8.90;1.00;;;;;;5052515;28;20121;-93
2022/03/28 05:45:40;;;;;;;13.80;10.57;;;9.00;1.00;;;;;;5050195;28;20116;-93
2022/03/28 05:48:06;;;;;;;14.40;10.65;;;9.10;1.00;;;;;;5052506;28;20489;-93
2022/03/28 05:50:32;;;;;;;16.00;11.18;;;8.70;1.00;;;;;;5050702;28;20465;-93
2022/03/28 05:52:57;;;;;;;15.65;10.10;;;8.70;1.00;;;;;;5049243;28;20052;-93
2022/03/28 05:55:23;;;;;;;17.85;10.55;;;8.90;1.00;;;;;;5052292;28;20059;-93
2022/03/28 05:57:49;;;;;;;15.73;11.05;;;8.70;1.00;;;;;;5051413;28;20031;-93
2022/03/28 06:00:15;;;;;;;16.75;10.43;;;8.70;1.00;;;;;;5052332;28;20029;-93
2022/03/28 06:02:41;;;;;;;17.40;11.07;;;8.70;1.00;;;;;;5052694;28;20043;-93
2022/03/28 06:05:07;;;;;;;13.52;10.48;;;8.90;1.00;;;;;;5051712;28;20029;-93
2022/03/28 06:07:34;;;;;;;11.82;9.85;;;8.80;1.00;;;;;;5052061;28;20036;-93
2022/03/28 06:09:59;;;;;;;13.82;10.30;;;8.90;1.00;;;;;;5051569;28;20020;-93
2022/03/28 06:12:25;;;;;;;13.82;10.93;;;9.10;1.00;;;;;;5052519;28;20151;-93
2022/03/28 06:14:51;;;;;;;14.52;11.07;;;9.40;1.00;;;;;;5053605;28;20393;-93
2022/03/28 06:17:21;;;;;;;17.15;11.27;;;9.50;1.00;;;;;;5050119;28;20129;-93
2022/03/28 06:19:46;;;;;;;18.23;11.77;;;9.30;1.00;;;;;;5050564;28;20031;-93
2022/03/28 06:22:12;;;;;;;17.88;11.05;;;9.10;1.00;;;;;;5048932;28;20037;-93
2022/03/28 06:24:37;;;;;;;15.82;11.27;;;9.30;1.00;;;;;;5051719;28;20028;-82
2022/03/28 06:27:03;;;;;;;13.98;10.82;;;9.40;1.00;;;;;;5050859;28;20029;-82
2022/03/28 06:29:29;;;;;;;16.42;10.70;;;9.90;1.00;;;;;;5051533;28;20068;-82
2022/03/28 06:31:54;;;;;;;15.90;12.25;;;10.30;1.00;;;;;;5050661;28;20029;-81
2022/03/28 06:34:20;;;;;;;15.05;11.75;;;10.50;1.00;;;;;;5049981;28;20067;-82
2022/03/28 06:36:47;;;;;;;18.70;12.10;;;10.20;1.00;;;;;;5050313;28;20136;-82
2022/03/28 06:39:13;;;;;;;17.50;11.15;;;10.30;1.00;;;;;;5049673;28;20044;-83
2022/03/28 06:41:39;;;;;;;17.10;11.30;;;10.40;1.00;;;;;;5052847;28;20563;-83
2022/03/28 06:44:07;;;;;;;15.18;11.10;;;10.50;1.00;;;;;;5061036;28;20116;-83
2022/03/28 06:46:34;;;;;;;14.70;11.20;;;10.50;1.00;;;;;;5049814;28;20035;-82
2022/03/28 06:48:59;;;;;;;16.88;11.07;;;10.60;1.00;;;;;;5049786;28;20025;-81
2022/03/28 06:51:25;;;;;;;21.08;11.07;;;10.70;1.00;;;;;;5049945;28;20075;-81
2022/03/28 06:53:51;;;;;;;13.57;10.65;;;10.70;1.00;;;;;;5051850;28;20069;-83
2022/03/28 06:56:17;;;;;;;13.32;9.90;;;10.80;1.00;;;;;;5047817;28;20086;-82
2022/03/28 06:58:43;;;;;;;14.13;10.70;;;10.80;1.00;;;;;;5049574;28;20120;-83
2022/03/28 07:01:10;;;;;;;17.48;10.63;;;10.90;1.00;;;;;;5049757;28;20028;-83
2022/03/28 07:03:36;;;;;;;15.75;10.13;;;11.10;1.00;;;;;;5049580;28;20037;-81
2022/03/28 07:06:02;;;;;;;12.65;8.82;;;11.00;1.00;;;;;;5051486;28;20126;-82
2022/03/28 07:08:29;;;;;;;12.15;9.90;;;11.30;1.00;;;;;;5050423;28;20044;-77
2022/03/28 07:10:55;;;;;;;18.88;10.05;;;11.40;1.00;;;;;;5048986;28;20028;-86
2022/03/28 07:13:22;;;;;;;14.00;10.20;;;11.50;1.00;;;;;;5048692;28;20064;-83
2022/03/28 07:15:48;;;;;;;24.02;10.45;;;11.60;1.00;;;;;;5049667;28;20104;-75
2022/03/28 07:18:13;;;;;;;18.05;10.07;;;11.80;1.00;;;;;;5049756;28;20548;-86
2022/03/28 07:20:39;;;;;;;15.50;10.52;;;11.90;1.00;;;;;;5051443;28;20037;-80
2022/03/28 07:23:06;;;;;;;18.08;10.15;;;11.80;1.00;;;;;;5048858;28;20093;-81
2022/03/28 07:25:32;;;;;;;16.23;9.82;;;11.70;1.00;;;;;;5049191;28;20052;-81
2022/03/28 07:27:58;;;;;;;13.55;9.73;;;11.80;1.00;;;;;;5049078;28;20032;-81
2022/03/28 07:30:25;;;;;;;13.63;10.15;;;12.20;1.00;;;;;;5049777;28;20029;-81
2022/03/28 07:32:51;;;;;;;15.07;9.85;;;12.00;1.00;;;;;;5051265;28;20049;-81
2022/03/28 07:35:17;;;;;;;15.95;10.23;;;12.10;1.00;;;;;;5047514;28;20029;-81
2022/03/28 07:37:43;;;;;;;13.35;10.00;;;12.10;1.00;;;;;;5048084;28;20048;-81
2022/03/28 07:40:10;;;;;;;16.27;10.40;;;12.10;1.00;;;;;;5051540;28;20506;-80
2022/03/28 07:42:37;;;;;;;19.33;10.57;;;12.30;1.00;;;;;;5053283;28;20091;-81
2022/03/28 07:45:05;;;;;;;18.10;11.25;;;12.40;1.00;;;;;;5054471;28;20438;-81
2022/03/28 07:47:31;;;;;;;17.88;12.65;;;12.40;1.00;;;;;;5054263;28;20036;-81
2022/03/28 07:49:58;;;;;;;16.17;10.98;;;12.50;1.00;;;;;;5053615;28;20025;-81
2022/03/28 07:52:24;;;;;;;19.58;10.65;;;12.60;1.00;;;;;;5052796;28;20440;-80
2022/03/28 07:54:51;;;;;;;14.55;11.18;;;12.70;1.00;;;;;;5052701;28;20090;-81
2022/03/28 07:57:18;;;;;;;18.17;10.48;;;12.80;1.00;;;;;;5052828;28;20741;-81
2022/03/28 07:59:46;;;;;;;13.90;10.82;;;12.80;1.00;;;;;;5054939;28;20025;-81
2022/03/28 08:02:13;;;;;;;17.05;11.10;;;12.90;1.00;;;;;;5053365;28;20127;-81
2022/03/28 08:04:38;;;;;;;19.38;11.13;;;13.00;1.00;;;;;;5052557;28;20203;-80
2022/03/28 08:07:07;;;;;;;19.17;10.77;;;13.10;1.00;;;;;;5052488;28;20540;-81
2022/03/28 08:09:32;;;;;;;18.30;10.45;;;13.30;1.00;;;;;;5053290;28;20087;-81
2022/03/28 08:11:59;;;;;;;13.93;10.43;;;13.40;1.00;;;;;;5054158;28;20029;-81
2022/03/28 08:14:25;;;;;;;19.33;10.13;;;13.50;1.00;;;;;;5051655;28;20021;-81
2022/03/28 08:16:51;;;;;;;13.68;9.55;;;13.60;1.00;;;;;;5051176;28;20064;-81
2022/03/28 08:19:17;;;;;;;15.88;10.40;;;13.60;1.00;;;;;;5052540;28;20029;-81
2022/03/28 08:21:43;;;;;;;15.43;10.68;;;13.70;1.00;;;;;;5053375;28;20067;-80
2022/03/28 08:24:09;;;;;;;20.17;10.32;;;13.80;1.00;;;;;;5052875;28;20021;-81
2022/03/28 08:26:34;;;;;;;14.02;10.07;;;14.00;1.00;;;;;;5054075;28;20032;-81
2022/03/28 08:29:00;;;;;;;13.43;9.70;;;14.10;1.00;;;;;;5052283;28;20032;-81
2022/03/28 08:31:26;;;;;;;14.88;10.13;;;14.20;1.00;;;;;;5052705;28;20403;-80
2022/03/28 08:33:52;;;;;;;22.20;10.52;;;14.30;1.00;;;;;;5051664;28;20055;-81
2022/03/28 08:36:18;;;;;;;13.38;9.40;;;14.40;1.00;;;;;;5051392;28;20030;-81
2022/03/28 08:38:44;;;;;;;12.60;9.70;;;14.60;1.00;;;;;;5052753;28;20035;-81
2022/03/28 08:41:14;;;;;;;15.75;10.30;;;14.70;1.00;;;;;;5050637;28;20055;-81
2022/03/28 08:43:40;;;;;;;15.80;10.07;;;14.80;1.00;;;;;;5051199;28;20064;-81
2022/03/28 08:46:08;;;;;;;16.65;10.68;;;15.00;1.00;;;;;;5050728;28;20563;-81
2022/03/28 08:48:39;;;;;;;13.02;9.80;;;15.10;1.00;;;;;;5050909;28;20044;-81
2022/03/28 08:51:05;;;;;;;15.23;10.38;;;15.20;1.00;;;;;;5052049;28;20029;-82
2022/03/28 08:53:31;;;;;;;12.63;9.88;;;15.50;1.00;;;;;;5050374;28;20039;-81
2022/03/28 08:55:57;;;;;;;14.73;9.80;;;15.70;1.00;;;;;;5049301;28;20024;-82
2022/03/28 08:58:22;;;;;;;11.25;9.57;;;15.80;1.00;;;;;;5050575;28;20029;-81
2022/03/28 09:00:48;;;;;;;15.05;9.93;;;15.90;1.00;;;;;;5051463;28;20052;-81
2022/03/28 09:03:14;;;;;;;14.23;9.65;;;16.00;1.00;;;;;;5050590;28;20036;-81
2022/03/28 09:05:40;;;;;;;13.25;9.82;;;16.20;1.00;;;;;;5052540;28;20072;-82
2022/03/28 09:08:08;;;;;;;12.45;9.73;;;16.30;1.00;;;;;;5049173;28;20025;-81
2022/03/28 09:10:35;;;;;;;11.27;9.88;;;16.30;1.00;;;;;;5050711;28;20105;-83
2022/03/28 09:13:09;;;;;;;13.20;9.90;;;16.50;1.00;;;;;;5050456;28;20052;-81
2022/03/28 09:15:50;;;;;;;14.10;9.90;;;16.50;1.00;;;;;;5050371;28;20084;-81
2022/03/28 09:18:23;;;;;;;13.75;10.02;;;16.70;1.00;;;;;;5050304;28;20070;-81
2022/03/28 09:21:11;;;;;;;11.80;9.60;;;16.80;1.00;;;;;;5052487;28;20033;-82
2022/03/28 09:23:44;;;;;;;12.07;9.38;;;16.90;1.00;;;;;;5051047;28;20047;-82
2022/03/28 09:26:12;;;;;;;11.38;9.70;;;17.10;1.00;;;;;;5050065;28;20025;-82
2022/03/28 09:28:37;;;;;;;19.27;9.90;;;17.20;1.00;;;;;;5050596;28;20111;-82
2022/03/28 09:31:26;;;;;;;15.43;9.65;;;17.40;99.90;;;;;;5048333;28;20451;-82
2022/03/28 09:34:02;;;;;;;16.42;9.95;;;17.60;1.00;;;;;;4980482;28;2053461;-82
2022/03/28 09:36:44;;;;;;;15.13;10.32;;;17.70;99.90;;;;;;5035739;28;20505;-82
2022/03/28 09:39:32;;;;;;;11.68;9.75;;;17.90;99.90;;;;;;5051667;28;20481;-82
2022/03/28 09:42:11;;;;;;;14.38;10.60;;;18.40;99.90;;;;;;5049595;28;20095;-81
2022/03/28 09:44:49;;;;;;;14.02;10.38;;;20.20;99.90;;;;;;5053122;28;20029;-82
2022/03/28 09:47:19;;;;;;;13.30;10.57;;;21.60;99.90;;;;;;5050737;28;20074;-82
2022/03/28 09:49:49;;;;;;;12.40;10.85;;;22.40;99.90;;;;;;5051238;28;20025;-82
2022/03/28 09:52:17;;;;;;;12.02;10.38;;;22.90;99.90;;;;;;5049380;28;20040;-82
2022/03/28 09:54:45;;;;;;;14.63;10.13;;;23.40;99.90;;;;;;5049504;28;20104;-81
2022/03/28 09:57:13;;;;;;;14.30;10.48;;;23.40;99.90;;;;;;5051351;28;20457;-81
2022/03/28 09:59:40;;;;;;;12.23;10.40;;;23.90;99.90;;;;;;5050857;28;20027;-81
2022/03/28 10:02:23;;;;;;;14.88;10.60;;;24.30;99.90;;;;;;5049581;28;20098;-82
2022/03/28 10:04:51;;;;;;;12.18;10.77;;;24.50;99.90;;;;;;5052761;28;20025;-82
2022/03/28 10:07:18;;;;;;;12.23;9.73;;;25.10;99.90;;;;;;5052012;28;20392;-82
2022/03/28 10:09:44;;;;;;;16.27;10.10;;;25.40;99.90;;;;;;5049448;28;20469;-81
2022/03/28 10:12:10;;;;;;;13.05;10.10;;;26.00;99.90;;;;;;5051651;28;20013;-81
2022/03/28 10:14:36;;;;;;;12.38;9.60;;;26.20;99.90;;;;;;5050140;28;20033;-82
2022/03/28 10:17:05;;;;;;;14.02;9.88;;;26.60;99.90;;;;;;5051016;28;20135;-82
2022/03/28 10:19:34;;;;;;;11.68;10.02;;;26.70;99.90;;;;;;5049851;28;20056;-81
2022/03/28 10:22:03;;;;;;;12.00;9.57;;;27.00;99.90;;;;;;5049957;28;20025;-83
2022/03/28 10:24:33;;;;;;;13.07;9.52;;;27.40;99.90;;;;;;5035533;28;20112;-82
2022/03/28 10:27:00;;;;;;;12.02;9.23;;;26.80;99.90;;;;;;5052023;28;20071;-83
2022/03/28 10:29:40;;;;;;;12.88;8.68;;;26.50;99.90;;;;;;5049756;28;20028;-83
2022/03/28 10:32:13;;;;;;;10.82;9.13;;;26.80;99.90;;;;;;5045043;28;20439;-83
2022/03/28 10:34:39;;;;;;;10.75;9.10;;;27.30;99.90;;;;;;5029687;28;20034;-82
2022/03/28 10:37:36;;;;;;;12.88;9.48;;;27.40;99.90;;;;;;5030126;28;20044;-83
2022/03/28 10:40:27;;;;;;;10.32;8.63;;;28.00;99.90;;;;;;5029949;28;20095;-82
2022/03/28 10:43:02;;;;;;;10.18;9.15;;;28.50;99.90;;;;;;5030101;28;20171;-83
2022/03/28 10:45:36;;;;;;;11.48;9.68;;;28.80;99.90;;;;;;5015932;28;20037;-84
2022/03/28 10:48:03;;;;;;;10.60;9.13;;;29.40;99.90;;;;;;5027720;28;20030;-84
2022/03/28 10:50:48;;;;;;;10.45;9.35;;;29.60;99.90;;;;;;5029787;28;20036;-85
2022/03/28 10:53:29;;;;;;;10.23;9.10;;;29.70;99.90;;;;;;5028178;28;20033;-83
2022/03/28 10:56:05;;;;;;;10.82;9.63;;;31.20;99.90;;;;;;5029930;28;20032;-85
2022/03/28 10:58:42;;;;;;;14.85;9.75;;;32.70;99.90;;;;;;5029606;28;20029;-84
2022/03/28 11:01:08;;;;;;;11.93;9.68;;;32.10;99.90;;;;;;5030408;28;20389;-85
2022/03/28 11:03:54;;;;;;;10.65;9.10;;;32.50;99.90;;;;;;5028552;28;20037;-84
2022/03/28 11:07:01;;;;;;;13.05;9.45;;;32.50;99.90;;;;;;5030041;28;20048;-83
2022/03/28 11:09:46;;;;;;;10.13;9.13;;;32.10;99.90;;;;;;5014027;28;20022;-84
2022/03/28 11:12:30;;;;;;;12.68;9.38;;;32.00;99.90;;;;;;5027926;28;20561;-85
2022/03/28 11:14:57;;;;;;;10.63;9.52;;;33.20;99.90;;;;;;5027563;28;20033;-86
2022/03/28 11:17:30;;;;;;;13.18;9.35;;;32.60;99.90;;;;;;5028774;28;20033;-85
2022/03/28 11:20:14;;;;;;;11.68;9.48;;;32.30;99.90;;;;;;5029733;28;20139;-86
2022/03/28 11:23:11;;;;;;;11.30;9.70;;;33.00;99.90;;;;;;5029222;28;20041;-85
2022/03/28 11:25:46;;;;;;;10.48;9.45;;;33.50;99.90;;;;;;5029612;28;20024;-83
2022/03/28 11:28:13;;;;;;;11.55;9.10;;;33.50;99.90;;;;;;5028018;28;20112;-83
2022/03/28 11:30:45;;;;;;;10.82;9.07;;;33.90;99.90;;;;;;5027926;28;20036;-84
2022/03/28 11:33:13;;;;;;;10.25;8.90;;;34.40;99.90;;;;;;5037493;28;20091;-83
2022/03/28 11:35:40;;;;;;;10.00;9.10;;;34.70;99.90;;;;;;5049174;28;20155;-85
2022/03/28 11:38:06;;;;;;;11.50;9.93;;;34.30;99.90;;;;;;5049093;28;20047;-83
2022/03/28 11:40:40;;;;;;;11.43;9.90;;;34.20;99.90;;;;;;5049268;28;20044;-83
2022/03/28 11:43:06;;;;;;;10.77;9.68;;;33.20;99.90;;;;;;5049424;28;20068;-83
2022/03/28 11:45:33;;;;;;;11.93;9.48;;;33.10;99.90;;;;;;5048805;28;20033;-83
2022/03/28 11:47:59;;;;;;;10.50;9.45;;;33.60;99.90;;;;;;5050713;28;20024;-84
2022/03/28 11:50:30;;;;;;;10.55;9.15;;;33.50;99.90;;;;;;5049711;28;20052;-83
2022/03/28 11:52:55;;;;;;;11.20;8.77;;;33.80;99.90;;;;;;5048031;28;20067;-83
2022/03/28 11:55:25;;;;;;;11.80;8.40;;;34.10;99.90;;;;;;5049360;28;20426;-84
2022/03/28 12:00:40;;;;;;;9.55;8.43;;;33.30;99.90;;;;;;5035851;28;20052;-84
2022/03/28 12:03:09;;;;;;;11.32;9.18;;;33.50;99.90;;;;;;5049928;28;20025;-83
2022/03/28 12:05:40;;;;;;;11.20;9.00;;;33.20;99.90;;;;;;5050787;28;20511;-84
2022/03/28 12:08:08;;;;;;;10.63;9.63;;;33.30;99.90;;;;;;5047672;28;20100;-84
2022/03/28 12:10:36;;;;;;;10.27;9.23;;;32.50;99.90;;;;;;5047746;28;20021;-84
2022/03/28 12:13:05;;;;;;;10.57;9.15;;;33.10;99.90;;;;;;5047483;28;20128;-84
2022/03/28 12:15:43;;;;;;;11.63;9.73;;;32.20;99.90;;;;;;5048844;28;20412;-84
2022/03/28 12:18:09;;;;;;;11.35;9.48;;;31.90;99.90;;;;;;5049019;28;20033;-84
2022/03/28 12:20:40;;;;;;;10.60;9.00;;;31.90;99.90;;;;;;5050765;28;20056;-84
2022/03/28 12:23:08;;;;;;;11.02;9.35;;;32.30;99.90;;;;;;5048501;28;20116;-84
2022/03/28 12:25:45;;;;;;;11.80;9.70;;;32.10;99.90;;;;;;5050290;28;20025;-84
2022/03/28 12:28:12;;;;;;;12.27;10.02;;;31.40;99.90;;;;;;5052318;28;20120;-84
2022/03/28 12:30:39;;;;;;;11.02;9.82;;;32.70;99.90;;;;;;5052239;28;20032;-84
2022/03/28 12:33:11;;;;;;;10.88;9.75;;;32.20;99.90;;;;;;5052918;28;20040;-84
2022/03/28 12:35:42;;;;;;;12.60;10.05;;;31.40;99.90;;;;;;5054360;28;20128;-84
2022/03/28 12:38:08;;;;;;;12.68;9.68;;;32.30;99.90;;;;;;5053220;28;20056;-84
2022/03/28 12:40:35;;;;;;;11.00;9.50;;;32.70;99.90;;;;;;5052006;28;20021;-84
2022/03/28 12:43:04;;;;;;;10.73;9.43;;;32.60;99.90;;;;;;5052095;28;20060;-84
2022/03/28 12:45:31;;;;;;;10.55;9.45;;;32.20;99.90;;;;;;5050618;28;20024;-83
2022/03/28 12:47:58;;;;;;;11.85;9.95;;;32.30;99.90;;;;;;5054131;28;20037;-84
2022/03/28 12:50:26;;;;;;;10.93;9.93;;;31.80;99.90;;;;;;5052816;28;20477;-84
2022/03/28 12:53:08;;;;;;;10.25;9.15;;;31.80;99.90;;;;;;5051761;28;20029;-84